EDLV/NRN METAR and TAF weather

Enter ICAO airport designator
Station Type Date Time Source
EDLV METAR 2018/10/21 03:50 UTC NOAA

EDLV 210350Z VRB01KT 4500 BR NSC 05/05 Q1030


Station Type Date Time Source
EDLV Decoded METAR 2018/10/21 03:50 UTC NOAA

Niederrhein, Germany (EDLV) 51-36-09N 006-08-32E
Oct 20, 2018 - 11:50 PM EDT / 2018.10.21 0350 UTC
Wind: Variable at 1 MPH (1 KT):0
Visibility: 2 mile(s):0
Weather: mist
Temperature: 41 F (5 C)
Dew Point: 41 F (5 C)
Relative Humidity: 100%
Pressure (altimeter): 30.42 in. Hg (1030 hPa)
ob: EDLV 210350Z VRB01KT 4500 BR NSC 05/05 Q1030
cycle: 4

Station Type Date Time Source
EDLV TAF 2018/10/21 04:30 UTC NOAA

TAF TAF EDLV 210320Z 2104/2124 16003KT 6000 SCT040
TEMPO 2104/2108 4000 BR


Example: see airport list